createdAt,value
2022-09-10T00:03:36.187Z,97530.00
2022-09-10T00:07:37.558Z,97522.00
2022-09-10T00:11:40.587Z,97519.00
2022-09-10T00:15:45.015Z,97519.00
2022-09-10T00:19:45.964Z,97527.00
2022-09-10T00:23:47.728Z,97535.00
2022-09-10T00:27:48.580Z,97533.00
2022-09-10T00:31:49.606Z,97542.00
2022-09-10T00:35:50.568Z,97526.00
2022-09-10T00:39:51.607Z,97532.00
2022-09-10T00:43:58.768Z,97534.00
2022-09-10T00:48:06.741Z,97527.00
2022-09-10T00:52:08.523Z,97531.00
2022-09-10T00:56:09.894Z,97531.00
2022-09-10T01:00:13.401Z,97539.00
2022-09-10T01:04:15.234Z,97544.00
2022-09-10T01:08:18.189Z,97532.00
2022-09-10T01:12:23.139Z,97533.00
2022-09-10T01:16:47.530Z,97531.00
2022-09-10T01:20:52.306Z,97533.00
2022-09-10T01:25:02.481Z,97542.00
2022-09-10T01:29:26.295Z,97534.00
2022-09-10T01:33:34.187Z,97531.00
2022-09-10T01:37:38.144Z,97533.00
2022-09-10T01:41:39.089Z,97541.00
2022-09-10T01:45:54.247Z,97533.00
2022-09-10T01:50:11.380Z,97533.00
2022-09-10T01:54:25.796Z,97531.00
2022-09-10T01:58:33.895Z,97520.00
2022-09-10T02:02:53.525Z,97526.00
2022-09-10T02:06:55.702Z,97527.00
2022-09-10T02:11:08.590Z,97504.00
2022-09-10T02:15:12.320Z,97504.00
2022-09-10T02:19:14.583Z,97498.00
2022-09-10T02:23:19.167Z,97501.00
2022-09-10T02:27:20.216Z,97502.00
2022-09-10T02:31:22.069Z,97501.00
2022-09-10T02:35:22.941Z,97500.00
2022-09-10T02:39:24.221Z,97515.00
2022-09-10T02:43:26.376Z,97509.00
2022-09-10T02:47:28.331Z,97511.00
2022-09-10T02:51:29.281Z,97494.00
2022-09-10T02:55:31.239Z,97493.00
2022-09-10T02:59:33.074Z,97484.00
2022-09-10T03:03:35.550Z,97499.00
2022-09-10T03:07:36.622Z,97497.00
2022-09-10T03:11:39.599Z,97500.00
2022-09-10T03:15:41.927Z,97492.00
2022-09-10T03:19:43.081Z,97500.00
2022-09-10T03:23:49.097Z,97500.00
2022-09-10T03:27:52.702Z,97499.00
2022-09-10T03:31:54.200Z,97503.00
2022-09-10T03:35:55.424Z,97501.00
2022-09-10T03:39:57.331Z,97498.00
2022-09-10T03:43:58.288Z,97498.00
2022-09-10T03:47:59.308Z,97495.00
2022-09-10T03:52:00.608Z,97497.00
2022-09-10T03:56:02.563Z,97489.00
2022-09-10T04:00:05.364Z,97485.00
2022-09-10T04:04:07.742Z,97480.00
2022-09-10T04:08:10.624Z,97481.00
2022-09-10T04:12:11.555Z,97481.00
2022-09-10T04:16:12.560Z,97478.00
2022-09-10T04:20:14.149Z,97486.00
2022-09-10T04:24:15.183Z,97484.00
2022-09-10T04:28:16.290Z,97486.00
2022-09-10T04:32:17.444Z,97474.00
2022-09-10T04:36:20.263Z,97488.00
2022-09-10T04:40:21.200Z,97484.00
2022-09-10T04:44:23.299Z,97484.00
2022-09-10T04:48:24.427Z,97491.00
2022-09-10T04:52:26.987Z,97490.00
2022-09-10T04:56:28.002Z,97502.00
2022-09-10T05:00:28.919Z,97497.00
2022-09-10T05:04:29.999Z,97513.00
2022-09-10T05:08:32.480Z,97517.00
2022-09-10T05:12:33.459Z,97514.00
2022-09-10T05:16:35.861Z,97501.00
2022-09-10T05:20:39.490Z,97502.00
2022-09-10T05:24:40.555Z,97501.00
2022-09-10T05:28:42.035Z,97511.00
2022-09-10T05:32:42.999Z,97503.00
2022-09-10T05:36:43.944Z,97510.00
2022-09-10T05:40:45.109Z,97510.00
2022-09-10T05:44:46.180Z,97500.00
2022-09-10T05:48:47.367Z,97501.00
2022-09-10T05:52:48.600Z,97505.00
2022-09-10T05:56:49.561Z,97495.00
2022-09-10T06:00:51.264Z,97500.00
2022-09-10T06:04:52.297Z,97503.00
2022-09-10T06:08:55.400Z,97497.00
2022-09-10T06:12:56.394Z,97509.00
2022-09-10T06:16:57.533Z,97520.00
2022-09-10T06:21:05.288Z,97522.00
2022-09-10T06:25:06.803Z,97524.00
2022-09-10T06:29:08.029Z,97522.00
2022-09-10T06:33:08.990Z,97520.00
2022-09-10T06:37:10.263Z,97522.00
2022-09-10T06:41:13.641Z,97528.00
2022-09-10T06:45:14.721Z,97530.00
2022-09-10T06:49:15.795Z,97536.00
2022-09-10T06:53:16.880Z,97537.00
2022-09-10T06:57:19.772Z,97541.00
2022-09-10T07:01:22.892Z,97538.00
2022-09-10T07:05:23.909Z,97537.00
2022-09-10T07:09:24.975Z,97536.00
2022-09-10T07:13:26.771Z,97536.00
2022-09-10T07:17:31.620Z,97541.00
2022-09-10T07:21:30.490Z,97548.00
2022-09-10T07:25:33.607Z,97548.00
2022-09-10T07:29:34.570Z,97552.00
2022-09-10T07:33:35.644Z,97548.00
2022-09-10T07:37:38.542Z,97543.00
2022-09-10T07:41:39.623Z,97555.00
2022-09-10T07:45:41.250Z,97576.00
2022-09-10T07:49:44.601Z,97565.00
2022-09-10T07:53:50.490Z,97579.00
2022-09-10T07:57:49.034Z,97574.00
2022-09-10T08:01:50.322Z,97574.00
2022-09-10T08:05:53.268Z,97581.00
2022-09-10T08:09:54.344Z,97582.00
2022-09-10T08:13:56.167Z,97586.00
2022-09-10T08:18:00.049Z,97583.00
2022-09-10T08:22:02.704Z,97584.00
2022-09-10T08:26:05.883Z,97588.00
2022-09-10T08:30:08.506Z,97581.00
2022-09-10T08:34:11.376Z,97598.00
2022-09-10T08:38:12.777Z,97591.00
2022-09-10T08:42:23.849Z,97595.00
2022-09-10T08:46:28.768Z,97595.00
2022-09-10T08:50:49.095Z,97598.00
2022-09-10T08:55:18.253Z,97598.00
2022-09-10T08:59:26.036Z,97598.00
2022-09-10T09:03:31.977Z,97606.00
2022-09-10T09:07:39.609Z,97609.00
2022-09-10T09:11:56.159Z,97608.00
2022-09-10T09:16:04.020Z,97617.00
2022-09-10T09:20:17.672Z,97611.00
2022-09-10T09:24:25.080Z,97619.00
2022-09-10T09:28:31.343Z,97617.00
2022-09-10T09:32:39.140Z,97619.00
2022-09-10T09:36:44.429Z,97613.00
2022-09-10T09:40:49.068Z,97626.00
2022-09-10T09:44:57.281Z,97607.00
2022-09-10T09:49:03.400Z,97614.00
2022-09-10T09:53:04.271Z,97611.00
2022-09-10T09:57:09.055Z,97609.00
2022-09-10T10:01:14.162Z,97610.00
2022-09-10T10:05:23.995Z,97614.00
2022-09-10T10:09:28.477Z,97614.00
2022-09-10T10:13:37.648Z,97609.00
2022-09-10T10:17:39.891Z,97609.00
2022-09-10T10:21:42.822Z,97601.00
2022-09-10T10:25:45.675Z,97597.00
2022-09-10T10:30:02.329Z,97606.00
2022-09-10T10:34:15.871Z,97604.00
2022-09-10T10:38:24.490Z,97604.00
2022-09-10T10:42:29.199Z,97601.00
2022-09-10T10:46:40.046Z,97598.00
2022-09-10T10:51:07.543Z,97602.00
2022-09-10T10:55:28.014Z,97597.00
2022-09-10T10:59:39.003Z,97591.00
2022-09-10T11:03:44.314Z,97598.00
2022-09-10T11:07:46.620Z,97590.00
2022-09-10T11:11:54.517Z,97595.00
2022-09-10T11:16:09.067Z,97582.00
2022-09-10T11:20:28.543Z,97589.00
2022-09-10T11:24:46.462Z,97590.00
2022-09-10T11:29:10.024Z,97590.00
2022-09-10T11:33:26.930Z,97581.00
2022-09-10T11:37:50.396Z,97570.00
2022-09-10T11:41:54.331Z,97570.00
2022-09-10T11:45:58.444Z,97575.00
2022-09-10T11:50:10.590Z,97566.00
2022-09-10T11:54:18.329Z,97567.00
2022-09-10T11:58:30.568Z,97567.00
2022-09-10T12:02:53.339Z,97497.00
2022-09-10T12:07:01.112Z,97576.00
2022-09-10T12:11:28.560Z,97576.00
2022-09-10T12:15:30.623Z,97576.00
2022-09-10T12:19:43.569Z,97569.00
2022-09-10T12:23:44.712Z,97569.00
2022-09-10T12:27:48.798Z,97569.00
2022-09-10T12:32:17.613Z,97573.00
2022-09-10T12:36:32.470Z,97564.00
2022-09-10T12:40:37.381Z,97558.00
2022-09-10T12:44:42.348Z,97564.00
2022-09-10T12:49:02.283Z,97565.00
2022-09-10T12:53:06.979Z,97563.00
2022-09-10T12:57:26.450Z,97558.00
2022-09-10T13:01:45.507Z,97570.00
2022-09-10T13:05:50.915Z,97561.00
2022-09-10T13:10:05.073Z,97563.00
2022-09-10T13:14:06.139Z,97561.00
2022-09-10T13:18:26.231Z,97569.00
2022-09-10T13:22:32.890Z,97562.00
2022-09-10T13:26:37.641Z,97558.00
2022-09-10T13:30:38.834Z,97554.00
2022-09-10T13:34:52.421Z,97555.00
2022-09-10T13:39:03.351Z,97548.00
2022-09-10T13:43:11.237Z,97543.00
2022-09-10T13:47:24.053Z,97547.00
2022-09-10T13:51:35.802Z,97562.00
2022-09-10T13:55:37.541Z,97562.00
2022-09-10T13:59:40.503Z,97559.00
2022-09-10T14:03:44.342Z,97571.00
2022-09-10T14:07:45.688Z,97576.00
2022-09-10T14:11:47.053Z,97564.00
2022-09-10T14:15:51.602Z,97571.00
2022-09-10T14:19:58.372Z,97552.00
2022-09-10T14:23:59.647Z,97557.00
2022-09-10T14:28:27.140Z,97551.00
2022-09-10T14:32:34.069Z,97564.00
2022-09-10T14:36:35.046Z,97578.00
2022-09-10T14:40:38.355Z,97558.00
2022-09-10T14:44:41.494Z,97595.00
2022-09-10T14:49:01.287Z,97588.00
2022-09-10T14:53:02.426Z,97592.00
2022-09-10T14:57:08.721Z,97588.00
2022-09-10T15:01:09.758Z,97573.00
2022-09-10T15:05:16.692Z,97563.00
2022-09-10T15:09:19.133Z,97568.00
2022-09-10T15:13:20.495Z,97561.00
2022-09-10T15:17:21.554Z,97557.00
2022-09-10T15:21:22.725Z,97549.00
2022-09-10T15:25:47.253Z,97546.00
2022-09-10T15:29:48.682Z,97537.00
2022-09-10T15:33:50.415Z,97540.00
2022-09-10T15:37:51.453Z,97536.00
2022-09-10T15:41:53.179Z,97547.00
2022-09-10T15:45:54.206Z,97549.00
2022-09-10T15:49:55.845Z,97550.00
2022-09-10T15:53:56.825Z,97545.00
2022-09-10T15:57:57.861Z,97529.00
2022-09-10T16:01:59.091Z,97534.00
2022-09-10T16:06:01.966Z,97533.00
2022-09-10T16:10:03.675Z,97532.00
2022-09-10T16:14:07.395Z,97539.00
2022-09-10T16:18:08.763Z,97546.00
2022-09-10T16:22:09.923Z,97558.00
2022-09-10T16:26:17.171Z,97553.00
2022-09-10T16:30:18.211Z,97554.00
2022-09-10T16:34:21.467Z,97549.00
2022-09-10T16:38:22.424Z,97561.00
2022-09-10T16:42:24.412Z,97564.00
2022-09-10T16:46:26.794Z,97566.00
2022-09-10T16:50:27.731Z,97571.00
2022-09-10T16:54:30.630Z,97566.00
2022-09-10T16:58:35.806Z,97568.00
2022-09-10T17:02:35.373Z,97573.00
2022-09-10T17:06:36.477Z,97572.00
2022-09-10T17:10:37.540Z,97572.00
2022-09-10T17:14:38.945Z,97582.00
2022-09-10T17:18:39.900Z,97574.00
2022-09-10T17:22:42.039Z,97571.00
2022-09-10T17:26:43.230Z,97552.00
2022-09-10T17:30:45.002Z,97569.00
2022-09-10T17:34:46.761Z,97560.00
2022-09-10T17:38:48.070Z,97557.00
2022-09-10T17:42:49.776Z,97552.00
2022-09-10T17:46:51.740Z,97565.00
2022-09-10T17:50:52.804Z,97565.00
2022-09-10T17:54:53.850Z,97566.00
2022-09-10T17:58:57.380Z,97564.00
2022-09-10T18:02:58.474Z,97581.00
2022-09-10T18:07:00.558Z,97573.00
2022-09-10T18:11:07.350Z,97571.00
2022-09-10T18:15:08.922Z,97588.00
2022-09-10T18:19:15.762Z,97581.00
2022-09-10T18:23:17.212Z,97586.00
2022-09-10T18:27:18.276Z,97599.00
2022-09-10T18:31:19.275Z,97589.00
2022-09-10T18:35:20.670Z,97589.00
2022-09-10T18:39:22.551Z,97604.00
2022-09-10T18:43:23.723Z,97591.00
2022-09-10T18:47:43.494Z,97598.00
2022-09-10T18:51:29.810Z,97591.00
2022-09-10T18:55:31.069Z,97589.00
2022-09-10T18:59:34.145Z,97587.00
2022-09-10T19:03:41.197Z,97586.00
2022-09-10T19:07:42.279Z,97595.00
2022-09-10T19:11:45.341Z,97601.00
2022-09-10T19:15:50.157Z,97587.00
2022-09-10T19:19:51.079Z,97609.00
2022-09-10T19:23:59.359Z,97609.00
2022-09-10T19:27:58.193Z,97614.00
2022-09-10T19:31:59.982Z,97626.00
2022-09-10T19:36:06.117Z,97623.00
2022-09-10T19:40:08.692Z,97631.00
2022-09-10T19:44:11.974Z,97632.00
2022-09-10T19:48:13.050Z,97638.00
2022-09-10T19:52:14.214Z,97630.00
2022-09-10T19:56:21.078Z,97630.00
2022-09-10T20:00:45.443Z,97630.00
2022-09-10T20:04:27.012Z,97633.00
2022-09-10T20:08:28.089Z,97644.00
2022-09-10T20:12:29.431Z,97645.00
2022-09-10T20:16:30.835Z,97651.00
2022-09-10T20:20:32.272Z,97650.00
2022-09-10T20:24:33.548Z,97650.00
2022-09-10T20:28:34.657Z,97653.00
2022-09-10T20:32:35.651Z,97657.00
2022-09-10T20:36:41.463Z,97661.00
2022-09-10T20:40:42.429Z,97655.00
2022-09-10T20:44:43.671Z,97659.00
2022-09-10T20:48:48.981Z,97658.00
2022-09-10T20:52:48.416Z,97654.00
2022-09-10T20:56:49.470Z,97657.00
2022-09-10T21:00:50.856Z,97656.00
2022-09-10T21:04:52.140Z,97640.00
2022-09-10T21:08:56.868Z,97642.00
2022-09-10T21:12:58.201Z,97652.00
2022-09-10T21:16:59.211Z,97650.00
2022-09-10T21:21:10.190Z,97649.00
2022-09-10T21:25:11.765Z,97647.00
2022-09-10T21:29:15.971Z,97645.00
2022-09-10T21:33:16.937Z,97662.00
2022-09-10T21:37:18.012Z,97648.00
2022-09-10T21:41:25.747Z,97662.00
2022-09-10T21:45:27.302Z,97665.00
2022-09-10T21:49:28.784Z,97663.00
2022-09-10T21:53:30.271Z,97670.00
2022-09-10T21:57:31.420Z,97674.00
2022-09-10T22:01:32.567Z,97666.00
2022-09-10T22:05:33.471Z,97674.00
2022-09-10T22:09:34.522Z,97674.00
2022-09-10T22:13:37.337Z,97674.00
2022-09-10T22:17:38.476Z,97690.00
2022-09-10T22:21:40.311Z,97681.00
2022-09-10T22:25:41.282Z,97681.00
2022-09-10T22:29:43.636Z,97683.00
2022-09-10T22:33:49.430Z,97690.00
2022-09-10T22:37:55.746Z,97696.00
2022-09-10T22:41:57.132Z,97706.00
2022-09-10T22:45:58.090Z,97706.00
2022-09-10T22:49:59.086Z,97707.00
2022-09-10T22:54:01.190Z,97712.00
2022-09-10T22:58:02.636Z,97725.00
2022-09-10T23:02:04.247Z,97728.00
2022-09-10T23:06:12.226Z,97727.00
2022-09-10T23:10:13.135Z,97734.00
2022-09-10T23:14:18.525Z,97741.00
2022-09-10T23:18:19.351Z,97748.00
2022-09-10T23:22:21.442Z,97744.00
2022-09-10T23:26:23.504Z,97752.00
2022-09-10T23:30:24.526Z,97745.00
2022-09-10T23:34:25.616Z,97758.00
2022-09-10T23:38:26.897Z,97751.00
2022-09-10T23:42:29.307Z,97762.00
2022-09-10T23:46:30.780Z,97770.00
2022-09-10T23:50:31.778Z,97770.00
2022-09-10T23:54:34.538Z,97774.00
2022-09-10T23:58:35.602Z,97774.00
